createdAt,value
2019-05-06T00:00:56.423Z,70.9290
2019-05-06T00:01:55.817Z,71.1365
2019-05-06T00:02:58.204Z,71.3440
2019-05-06T00:04:01.850Z,71.4539
2019-05-06T00:05:04.788Z,71.4539
2019-05-06T00:06:07.798Z,71.5576
2019-05-06T00:07:10.876Z,71.6614
2019-05-06T00:08:14.462Z,71.7651
2019-05-06T00:09:17.914Z,71.9727
2019-05-06T00:10:21.435Z,72.0764
2019-05-06T00:11:24.873Z,72.1497
2019-05-06T00:12:27.919Z,72.2534
2019-05-06T00:13:31.882Z,72.3572
2019-05-06T00:14:34.227Z,72.4670
2019-05-06T00:15:37.938Z,72.5708
2019-05-06T00:16:40.832Z,72.5708
2019-05-06T00:17:44.539Z,72.6746
2019-05-06T00:18:47.953Z,72.7783
2019-05-06T00:19:54.040Z,72.7783
2019-05-06T00:20:59.935Z,72.8821
2019-05-06T00:22:04.731Z,72.8821
2019-05-06T00:23:08.881Z,72.8516
2019-05-06T00:24:14.552Z,72.9553
2019-05-06T00:25:17.883Z,72.9553
2019-05-06T00:26:21.067Z,72.9553
2019-05-06T00:27:24.868Z,72.9553
2019-05-06T00:28:28.140Z,72.9553
2019-05-06T00:29:31.903Z,73.0591
2019-05-06T00:30:35.980Z,73.0225
2019-05-06T00:31:39.856Z,73.0225
2019-05-06T00:32:44.275Z,73.1323
2019-05-06T00:33:48.183Z,73.2361
2019-05-06T00:34:51.261Z,73.3398
2019-05-06T00:35:54.910Z,73.3398
2019-05-06T00:36:58.870Z,73.5474
2019-05-06T00:38:01.835Z,73.5474
2019-05-06T00:39:04.859Z,73.5474
2019-05-06T00:40:07.211Z,73.6511
2019-05-06T00:41:10.184Z,73.6511
2019-05-06T00:42:13.924Z,73.7549
2019-05-06T00:43:17.192Z,73.9624
2019-05-06T00:44:20.170Z,74.0723
2019-05-06T00:45:24.404Z,74.0723
2019-05-06T00:46:27.181Z,74.0723
2019-05-06T00:47:30.833Z,74.0356
2019-05-06T00:48:34.271Z,74.0356
2019-05-06T00:49:37.815Z,74.0356
2019-05-06T00:50:40.900Z,74.1394
2019-05-06T00:51:44.185Z,74.1394
2019-05-06T00:52:47.864Z,74.2432
2019-05-06T00:53:50.857Z,74.3469
2019-05-06T00:54:54.790Z,74.4507
2019-05-06T00:55:58.890Z,74.4507
2019-05-06T00:57:03.621Z,74.4873
2019-05-06T00:58:06.923Z,74.4507
2019-05-06T00:59:10.929Z,74.4507
2019-05-06T01:00:14.909Z,74.4507
2019-05-06T01:01:28.640Z,74.3469
2019-05-06T01:02:26.928Z,74.3469
2019-05-06T01:03:30.188Z,74.3469
2019-05-06T01:04:34.045Z,74.3469
2019-05-06T01:05:37.937Z,74.2432
2019-05-06T01:06:43.860Z,74.1394
2019-05-06T01:07:47.843Z,74.0356
2019-05-06T01:08:50.837Z,74.0356
2019-05-06T01:09:54.245Z,73.9319
2019-05-06T01:10:57.928Z,73.7244
2019-05-06T01:12:03.737Z,73.8281
2019-05-06T01:13:06.825Z,73.9624
2019-05-06T01:14:09.915Z,74.0723
2019-05-06T01:15:14.283Z,74.1760
2019-05-06T01:16:22.191Z,74.1760
2019-05-06T01:17:25.197Z,74.0723
2019-05-06T01:18:27.212Z,74.0723
2019-05-06T01:19:30.208Z,74.1760
2019-05-06T01:20:33.973Z,74.1760
2019-05-06T01:21:37.186Z,74.2065
2019-05-06T01:22:40.189Z,74.2065
2019-05-06T01:23:43.709Z,74.3103
2019-05-06T01:24:47.230Z,74.2065
2019-05-06T01:25:50.199Z,74.3103
2019-05-06T01:26:53.849Z,74.2065
2019-05-06T01:27:56.835Z,74.2065
2019-05-06T01:28:59.821Z,74.1028
2019-05-06T01:30:04.401Z,74.2065
2019-05-06T01:31:07.766Z,74.3103
2019-05-06T01:32:10.941Z,74.2065
2019-05-06T01:33:14.901Z,74.2065
2019-05-06T01:34:18.384Z,74.2065
2019-05-06T01:35:21.846Z,74.2065
2019-05-06T01:36:26.916Z,74.3103
2019-05-06T01:37:49.935Z,74.3103
2019-05-06T01:38:53.796Z,74.3103
2019-05-06T01:39:56.878Z,74.3103
2019-05-06T01:41:00.979Z,74.3103
2019-05-06T01:42:04.820Z,74.3103
2019-05-06T01:43:07.191Z,74.2065
2019-05-06T01:44:10.863Z,74.2065
2019-05-06T01:45:15.166Z,74.3103
2019-05-06T01:46:18.863Z,74.3103
2019-05-06T01:47:23.793Z,74.4202
2019-05-06T01:48:27.436Z,74.4202
2019-05-06T01:49:30.203Z,74.4202
2019-05-06T01:50:34.443Z,74.5239
2019-05-06T01:51:37.179Z,74.7314
2019-05-06T01:52:40.187Z,74.9390
2019-05-06T01:53:44.783Z,75.0793
2019-05-06T01:54:47.265Z,75.0793
2019-05-06T01:55:50.802Z,75.1831
2019-05-06T01:56:53.863Z,75.1831
2019-05-06T01:57:57.027Z,75.1831
2019-05-06T01:59:00.820Z,75.2869
2019-05-06T02:00:04.843Z,75.2869
2019-05-06T02:01:08.950Z,75.3906
2019-05-06T02:02:14.344Z,75.3906
2019-05-06T02:03:17.861Z,75.3906
2019-05-06T02:04:20.908Z,75.3906
2019-05-06T02:05:24.901Z,75.2869
2019-05-06T02:06:28.228Z,75.1831
2019-05-06T02:07:31.843Z,75.1831
2019-05-06T02:08:34.961Z,75.1831
2019-05-06T02:09:38.872Z,75.0793
2019-05-06T02:10:43.583Z,75.0793
2019-05-06T02:11:48.128Z,74.9756
2019-05-06T02:12:50.190Z,74.9756
2019-05-06T02:13:53.951Z,74.9756
2019-05-06T02:14:57.914Z,74.9023
2019-05-06T02:16:03.889Z,74.9023
2019-05-06T02:17:07.940Z,74.9023
2019-05-06T02:18:11.171Z,75.0061
2019-05-06T02:19:14.960Z,75.1099
2019-05-06T02:20:18.864Z,75.1099
2019-05-06T02:21:24.530Z,75.1099
2019-05-06T02:22:29.866Z,74.9023
2019-05-06T02:23:33.865Z,74.5911
2019-05-06T02:24:37.854Z,74.5911
2019-05-06T02:25:40.902Z,74.6948
2019-05-06T02:26:44.525Z,74.6948
2019-05-06T02:27:47.864Z,74.5911
2019-05-06T02:28:51.288Z,74.6948
2019-05-06T02:29:54.382Z,74.7986
2019-05-06T02:30:57.201Z,75.0427
2019-05-06T02:32:16.049Z,75.1465
2019-05-06T02:33:08.210Z,75.1465
2019-05-06T02:34:11.191Z,75.2502
2019-05-06T02:35:14.940Z,75.3540
2019-05-06T02:36:18.203Z,75.4639
2019-05-06T02:37:21.185Z,75.5676
2019-05-06T02:38:33.267Z,75.5676
2019-05-06T02:39:34.125Z,75.5676
2019-05-06T02:40:37.862Z,75.6714
2019-05-06T02:41:39.880Z,75.6714
2019-05-06T02:42:47.909Z,75.7751
2019-05-06T02:43:54.168Z,75.7751
2019-05-06T02:44:58.118Z,75.7751
2019-05-06T02:46:03.950Z,75.8789
2019-05-06T02:47:06.818Z,75.9827
2019-05-06T02:48:09.852Z,75.9827
2019-05-06T02:49:13.308Z,76.0864
2019-05-06T02:50:18.073Z,76.0864
2019-05-06T02:51:24.364Z,76.0864
2019-05-06T02:52:27.866Z,76.1963
2019-05-06T02:53:33.409Z,76.1963
2019-05-06T02:54:36.867Z,76.0864
2019-05-06T02:55:42.830Z,76.0864
2019-05-06T02:56:46.826Z,75.9827
2019-05-06T02:57:49.200Z,75.8789
2019-05-06T02:58:53.698Z,75.8789
2019-05-06T02:59:58.215Z,75.7385
2019-05-06T03:01:03.554Z,75.7385
2019-05-06T03:02:06.196Z,75.7385
2019-05-06T03:03:09.881Z,75.7385
2019-05-06T03:04:13.172Z,75.7385
2019-05-06T03:05:16.194Z,75.6348
2019-05-06T03:06:19.315Z,75.5310
2019-05-06T03:07:23.329Z,75.5310
2019-05-06T03:08:26.193Z,75.4272
2019-05-06T03:09:29.245Z,75.4272
2019-05-06T03:10:33.008Z,75.3235
2019-05-06T03:11:36.204Z,75.2197
2019-05-06T03:12:39.200Z,75.1465
2019-05-06T03:13:43.703Z,74.8352
2019-05-06T03:14:47.849Z,74.7253
2019-05-06T03:15:53.749Z,74.4141
2019-05-06T03:16:57.802Z,74.3103
2019-05-06T03:18:03.204Z,74.2065
2019-05-06T03:19:06.908Z,73.9929
2019-05-06T03:20:13.215Z,73.8220
2019-05-06T03:21:16.819Z,73.6084
2019-05-06T03:22:19.939Z,73.5046
2019-05-06T03:23:23.806Z,73.2971
2019-05-06T03:24:26.943Z,73.0896
2019-05-06T03:25:33.138Z,72.8760
2019-05-06T03:26:36.853Z,72.6990
2019-05-06T03:27:39.936Z,72.5952
2019-05-06T03:28:44.266Z,72.5952
2019-05-06T03:29:47.938Z,72.6990
2019-05-06T03:30:56.185Z,72.6990
2019-05-06T03:31:59.939Z,72.8088
2019-05-06T03:34:35.249Z,73.0164
2019-05-06T03:35:40.400Z,73.2239
2019-05-06T03:36:34.637Z,73.4375
2019-05-06T03:37:38.196Z,73.6450
2019-05-06T03:38:43.131Z,73.8525
2019-05-06T03:39:47.009Z,74.0601
2019-05-06T03:40:53.546Z,74.2737
2019-05-06T03:41:56.231Z,74.3774
2019-05-06T03:43:02.635Z,74.5850
2019-05-06T03:44:05.208Z,74.5850
2019-05-06T03:45:08.200Z,74.5850
2019-05-06T03:46:13.979Z,74.6887
2019-05-06T03:47:18.040Z,74.7986
2019-05-06T03:48:23.754Z,74.7986
2019-05-06T03:49:27.818Z,74.7986
2019-05-06T03:50:33.500Z,74.7986
2019-05-06T03:51:36.187Z,74.7986
2019-05-06T03:52:42.900Z,74.9023
2019-05-06T03:53:46.891Z,75.0061
2019-05-06T03:54:50.211Z,75.1099
2019-05-06T03:55:54.112Z,75.2136
2019-05-06T03:56:57.900Z,75.3174
2019-05-06T03:58:03.904Z,75.2869
2019-05-06T03:59:07.872Z,75.2869
2019-05-06T04:00:13.279Z,75.2869
2019-05-06T04:01:18.903Z,75.2869
2019-05-06T04:02:24.004Z,75.2869
2019-05-06T04:03:42.427Z,75.1831
2019-05-06T04:04:35.891Z,75.1831
2019-05-06T04:05:39.918Z,75.1831
2019-05-06T04:06:43.910Z,75.2869
2019-05-06T04:07:48.016Z,75.3906
2019-05-06T04:08:52.899Z,75.5981
2019-05-06T04:09:56.981Z,75.7019
2019-05-06T04:11:03.165Z,75.5676
2019-05-06T04:12:06.874Z,75.6714
2019-05-06T04:13:09.876Z,75.7751
2019-05-06T04:14:14.216Z,75.8789
2019-05-06T04:15:17.204Z,75.9827
2019-05-06T04:16:22.788Z,75.9827
2019-05-06T04:17:27.191Z,76.0864
2019-05-06T04:18:33.185Z,76.0559
2019-05-06T04:19:36.800Z,76.0559
2019-05-06T04:20:39.837Z,76.0559
2019-05-06T04:21:43.643Z,76.1597
2019-05-06T04:22:46.869Z,76.1597
2019-05-06T04:23:53.202Z,76.1230
2019-05-06T04:24:55.886Z,76.1230
2019-05-06T04:25:59.927Z,76.1230
2019-05-06T04:27:03.962Z,76.2268
2019-05-06T04:28:06.834Z,76.1963
2019-05-06T04:29:08.172Z,76.3000
2019-05-06T04:30:13.575Z,76.3000
2019-05-06T04:31:16.910Z,76.3000
2019-05-06T04:32:23.363Z,76.3000
2019-05-06T04:33:26.863Z,76.4038
2019-05-06T04:34:29.893Z,76.4709
2019-05-06T04:35:33.921Z,76.4709
2019-05-06T04:36:37.886Z,76.5747
2019-05-06T04:37:42.945Z,76.5747
2019-05-06T04:38:46.890Z,76.6846
2019-05-06T04:39:52.965Z,76.6846
2019-05-06T04:40:57.784Z,76.7517
2019-05-06T04:42:03.463Z,76.7517
2019-05-06T04:43:06.550Z,76.7517
2019-05-06T04:44:13.548Z,76.7517
2019-05-06T04:45:17.955Z,76.8555
2019-05-06T04:46:23.664Z,76.8188
2019-05-06T04:47:27.146Z,76.8188
2019-05-06T04:48:32.960Z,76.8188
2019-05-06T04:49:36.854Z,76.8188
2019-05-06T04:50:39.869Z,76.8188
2019-05-06T04:51:43.426Z,76.7883
2019-05-06T04:52:46.768Z,76.7883
2019-05-06T04:53:53.426Z,76.7883
2019-05-06T04:54:57.747Z,76.6785
2019-05-06T04:56:03.852Z,76.6785
2019-05-06T04:57:07.215Z,76.6479
2019-05-06T04:58:13.140Z,76.6479
2019-05-06T04:59:17.821Z,76.6479
2019-05-06T05:00:20.158Z,76.7517
2019-05-06T05:01:23.847Z,76.7517
2019-05-06T05:02:26.814Z,76.8555
2019-05-06T05:03:29.176Z,76.8555
2019-05-06T05:04:35.793Z,76.8188
2019-05-06T05:05:40.096Z,76.9226
2019-05-06T05:06:43.819Z,76.9226
2019-05-06T05:07:46.979Z,76.9226
2019-05-06T05:08:50.194Z,76.9226
2019-05-06T05:09:53.867Z,76.9226
2019-05-06T05:10:56.860Z,77.0264
2019-05-06T05:12:02.495Z,77.0264
2019-05-06T05:13:05.862Z,77.1301
2019-05-06T05:14:08.849Z,77.1301
2019-05-06T05:15:12.012Z,77.1301
2019-05-06T05:16:15.955Z,77.2339
2019-05-06T05:17:19.910Z,77.2339
2019-05-06T05:18:22.798Z,77.2339
2019-05-06T05:19:25.873Z,77.2339
2019-05-06T05:20:38.239Z,77.2339
2019-05-06T05:21:36.893Z,77.3376
2019-05-06T05:22:42.225Z,77.3376
2019-05-06T05:23:46.082Z,77.3376
2019-05-06T05:24:51.941Z,77.3376
2019-05-06T05:25:55.869Z,77.4475
2019-05-06T05:27:00.076Z,77.4475
2019-05-06T05:28:03.903Z,77.4475
2019-05-06T05:29:06.975Z,77.4475
2019-05-06T05:30:12.430Z,77.3376
2019-05-06T05:31:15.873Z,77.3376
2019-05-06T05:32:18.939Z,77.4475
2019-05-06T05:33:22.828Z,77.4475
2019-05-06T05:34:37.105Z,77.6550
2019-05-06T05:35:33.934Z,77.7588
2019-05-06T05:36:37.899Z,77.9663
2019-05-06T05:37:41.961Z,78.1738
2019-05-06T05:38:46.352Z,78.3447
2019-05-06T05:39:49.217Z,78.4485
2019-05-06T05:40:52.507Z,78.5583
2019-05-06T05:41:55.209Z,78.5583
2019-05-06T05:42:58.196Z,78.5217
2019-05-06T05:44:02.395Z,78.4180
2019-05-06T05:45:05.185Z,78.3142
2019-05-06T05:46:08.198Z,78.2043
2019-05-06T05:47:12.382Z,78.1738
2019-05-06T05:48:15.746Z,78.0701
2019-05-06T05:49:21.617Z,78.0701
2019-05-06T05:50:25.190Z,78.1738
2019-05-06T05:51:29.234Z,78.0334
2019-05-06T05:52:32.910Z,78.0334
2019-05-06T05:53:36.171Z,78.0334
2019-05-06T05:54:39.187Z,78.0334
2019-05-06T05:55:42.437Z,78.1372
2019-05-06T05:56:45.957Z,77.9968
2019-05-06T05:57:49.284Z,77.9968
2019-05-06T05:58:54.381Z,77.9968
2019-05-06T05:59:57.845Z,78.1006
2019-05-06T06:01:00.797Z,78.0640
2019-05-06T06:02:04.095Z,78.1677
2019-05-06T06:03:07.497Z,78.1677
2019-05-06T06:04:12.876Z,78.1677
2019-05-06T06:05:16.882Z,78.2349
2019-05-06T06:06:22.129Z,78.2349
2019-05-06T06:07:25.802Z,78.6499
2019-05-06T06:08:29.040Z,78.6133
2019-05-06T06:09:32.882Z,78.4058
2019-05-06T06:10:37.020Z,78.5095
2019-05-06T06:11:42.966Z,78.4729
2019-05-06T06:12:47.535Z,78.5767
2019-05-06T06:13:52.283Z,78.4729
2019-05-06T06:14:56.422Z,78.3386
2019-05-06T06:15:59.908Z,78.2349
2019-05-06T06:17:04.000Z,77.9907
2019-05-06T06:18:07.934Z,77.7832
2019-05-06T06:19:12.689Z,77.6794
2019-05-06T06:20:15.850Z,77.5391
2019-05-06T06:21:25.661Z,77.6428
2019-05-06T06:22:27.019Z,77.3987
2019-05-06T06:23:32.408Z,77.1912
2019-05-06T06:24:35.850Z,76.9470
2019-05-06T06:25:38.869Z,76.8433
2019-05-06T06:26:42.972Z,76.7090
2019-05-06T06:27:46.371Z,76.5015
2019-05-06T06:28:52.131Z,76.1536
2019-05-06T06:29:55.748Z,76.1536
2019-05-06T06:30:58.176Z,76.1536
2019-05-06T06:32:03.134Z,76.1169
2019-05-06T06:33:06.319Z,75.7751
2019-05-06T06:34:09.176Z,75.5676
2019-05-06T06:35:14.754Z,75.3601
2019-05-06T06:36:17.181Z,75.1160
2019-05-06T06:37:19.296Z,75.0122
2019-05-06T06:38:23.874Z,75.2197
2019-05-06T06:39:27.213Z,75.1892
2019-05-06T06:40:30.204Z,75.4944
2019-05-06T06:41:33.180Z,75.3601
2019-05-06T06:42:36.202Z,75.1526
2019-05-06T06:43:39.189Z,75.2197
2019-05-06T06:44:42.773Z,75.2197
2019-05-06T06:45:46.736Z,75.4272
2019-05-06T06:46:49.196Z,75.7019
2019-05-06T06:47:52.289Z,76.1841
2019-05-06T06:48:57.728Z,76.8677
2019-05-06T06:50:02.822Z,77.2461
2019-05-06T06:51:06.823Z,77.2095
2019-05-06T06:52:12.372Z,76.8982
2019-05-06T06:53:18.246Z,76.8616
2019-05-06T06:55:42.710Z,76.7944
2019-05-06T06:56:46.151Z,76.7944
2019-05-06T06:57:49.318Z,76.8616
2019-05-06T06:58:52.983Z,76.8616
2019-05-06T06:59:58.878Z,76.8250
2019-05-06T07:01:03.291Z,76.9287
2019-05-06T07:02:07.191Z,76.9958
2019-05-06T07:03:12.276Z,77.3010
2019-05-06T07:04:16.491Z,77.5757
2019-05-06T07:05:25.449Z,77.5391
2019-05-06T07:06:33.193Z,77.5391
2019-05-06T07:07:43.442Z,77.6062
2019-05-06T07:08:45.685Z,77.8748
2019-05-06T07:09:48.174Z,78.0823
2019-05-06T07:10:52.543Z,78.3508
2019-05-06T07:11:55.187Z,78.4546
2019-05-06T07:12:58.187Z,78.3142
2019-05-06T07:14:02.597Z,77.7649
2019-05-06T07:15:05.231Z,76.1292
2019-05-06T07:16:08.173Z,75.1709
2019-05-06T07:17:13.205Z,74.5605
2019-05-06T07:18:22.430Z,73.7061
2019-05-06T07:19:25.986Z,73.8770
2019-05-06T07:20:32.458Z,73.1628
2019-05-06T07:21:36.356Z,71.1853
2019-05-06T07:22:42.238Z,68.3289
2019-05-06T07:23:46.127Z,66.4917
2019-05-06T07:24:50.122Z,66.2842
2019-05-06T07:25:54.249Z,65.8447
2019-05-06T07:26:57.970Z,66.6626
2019-05-06T07:28:02.966Z,64.6179
2019-05-06T07:29:16.828Z,64.4897
2019-05-06T07:30:17.231Z,64.2822
2019-05-06T07:31:23.741Z,62.5488
2019-05-06T07:32:29.323Z,63.5376
2019-05-06T07:33:33.435Z,63.7451
2019-05-06T07:34:36.220Z,64.2517
2019-05-06T07:35:41.707Z,64.5630
2019-05-06T07:36:49.021Z,64.3250
2019-05-06T07:37:53.182Z,65.8569
2019-05-06T07:38:56.208Z,65.8569
2019-05-06T07:39:59.264Z,66.6687
2019-05-06T07:41:04.525Z,67.3523
2019-05-06T07:42:09.253Z,68.0664
2019-05-06T07:43:12.746Z,68.3716
2019-05-06T07:44:15.221Z,67.8284
2019-05-06T07:45:18.176Z,66.1011
2019-05-06T07:46:23.556Z,66.3025
2019-05-06T07:47:27.198Z,66.4734
2019-05-06T07:48:31.996Z,66.9861
2019-05-06T07:49:35.877Z,66.8823
2019-05-06T07:50:39.142Z,67.0532
2019-05-06T07:51:42.221Z,64.1052
2019-05-06T07:53:13.283Z,62.2742
2019-05-06T07:54:17.199Z,64.5081
2019-05-06T07:55:22.911Z,64.3066
2019-05-06T07:56:32.075Z,62.8540
2019-05-06T07:57:36.454Z,61.4319
2019-05-06T07:58:43.435Z,61.0229
2019-05-06T07:59:46.944Z,58.1726
2019-05-06T08:00:56.986Z,57.7698
2019-05-06T08:02:02.120Z,57.2876
2019-05-06T08:03:09.459Z,57.3608
2019-05-06T08:04:13.506Z,58.4778
2019-05-06T08:05:16.172Z,59.6008
2019-05-06T08:06:19.194Z,61.0962
2019-05-06T08:07:22.454Z,60.7605
2019-05-06T08:08:26.229Z,61.1694
2019-05-06T08:09:29.188Z,60.9070
2019-05-06T08:10:33.194Z,59.5886
2019-05-06T08:11:36.204Z,56.3110
2019-05-06T08:12:39.186Z,53.7781
2019-05-06T08:13:43.530Z,50.4028
2019-05-06T08:14:47.542Z,48.9868
2019-05-06T08:15:52.947Z,48.8831
2019-05-06T08:16:56.170Z,49.5911
2019-05-06T08:17:59.407Z,49.4934
2019-05-06T08:19:02.750Z,50.6836
2019-05-06T08:20:05.184Z,51.0681
2019-05-06T08:21:08.179Z,51.4709
2019-05-06T08:22:12.040Z,52.3560
2019-05-06T08:23:17.768Z,52.4353
2019-05-06T08:24:20.172Z,48.5901
2019-05-06T08:25:23.187Z,48.3887
2019-05-06T08:26:26.186Z,48.9685
2019-05-06T08:27:29.164Z,49.8596
2019-05-06T08:28:40.463Z,49.0234
2019-05-06T08:29:42.331Z,48.9258
2019-05-06T08:30:45.189Z,50.8240
2019-05-06T08:31:48.182Z,54.1565
2019-05-06T08:32:52.830Z,52.9175
2019-05-06T08:33:56.963Z,51.5808
2019-05-06T08:35:00.223Z,54.4312
2019-05-06T08:36:11.363Z,53.8513
2019-05-06T08:37:12.036Z,53.5461
2019-05-06T08:38:15.189Z,53.0457
2019-05-06T08:39:17.183Z,48.2727
2019-05-06T08:40:22.628Z,47.8455
2019-05-06T08:41:28.193Z,47.5220
2019-05-06T08:42:32.931Z,48.0042
2019-05-06T08:43:36.171Z,49.8169
2019-05-06T08:44:39.169Z,53.0701
2019-05-06T08:45:42.273Z,55.8472
2019-05-06T08:46:45.182Z,57.6904
2019-05-06T08:47:48.252Z,58.8318
2019-05-06T08:48:52.515Z,59.6680
2019-05-06T08:49:55.907Z,60.5042
2019-05-06T08:51:09.242Z,61.1389
2019-05-06T08:52:32.232Z,61.7798
2019-05-06T08:53:35.182Z,57.7515
2019-05-06T08:54:38.190Z,55.5237
2019-05-06T08:55:42.207Z,56.1340
2019-05-06T08:56:46.480Z,55.0415
2019-05-06T08:58:10.400Z,50.8606
2019-05-06T08:59:15.859Z,51.8311
2019-05-06T09:00:18.206Z,52.4841
2019-05-06T09:01:22.373Z,53.1433
2019-05-06T09:02:25.172Z,50.4150
2019-05-06T09:03:29.320Z,50.0122
2019-05-06T09:04:32.262Z,49.7070
2019-05-06T09:05:35.204Z,51.3245
2019-05-06T09:06:38.200Z,47.7905
2019-05-06T09:07:43.002Z,46.2769
2019-05-06T09:08:46.239Z,46.7590
2019-05-06T09:09:49.394Z,45.8069
2019-05-06T09:10:52.240Z,46.8933
2019-05-06T09:11:55.178Z,48.2056
2019-05-06T09:12:58.176Z,47.9004
2019-05-06T09:14:03.379Z,46.9910
2019-05-06T09:16:24.528Z,47.6196
2019-05-06T09:18:45.192Z,49.4629
2019-05-06T09:20:25.544Z,47.8699
2019-05-06T09:21:27.197Z,46.8811
2019-05-06T09:22:32.435Z,46.9055
2019-05-06T09:23:35.175Z,47.0276
2019-05-06T09:24:42.562Z,47.7539
2019-05-06T09:25:46.181Z,50.1099
2019-05-06T09:26:52.189Z,50.7385
2019-05-06T09:27:55.203Z,50.0305
2019-05-06T09:28:58.178Z,49.2432
2019-05-06T09:30:03.247Z,50.1770
2019-05-06T09:31:09.721Z,50.4822
2019-05-06T09:32:13.921Z,50.7080
2019-05-06T09:33:17.302Z,50.9338
2019-05-06T09:34:28.195Z,51.3428
2019-05-06T09:35:32.929Z,51.5686
2019-05-06T09:36:46.932Z,52.0752
2019-05-06T09:37:53.499Z,52.8137
2019-05-06T09:38:56.202Z,53.2410
2019-05-06T09:40:02.878Z,53.6499
2019-05-06T09:41:09.022Z,54.0833
2019-05-06T09:42:14.511Z,54.2847
2019-05-06T09:43:18.154Z,54.3091
2019-05-06T09:44:26.926Z,54.4128
2019-05-06T09:45:33.007Z,54.4128
2019-05-06T09:46:39.129Z,55.1514
2019-05-06T09:47:42.518Z,55.5298
2019-05-06T09:48:46.482Z,55.7617
2019-05-06T09:49:49.189Z,56.1646
2019-05-06T09:50:53.807Z,56.1646
2019-05-06T09:51:57.169Z,55.6335
2019-05-06T09:53:02.474Z,54.8157
2019-05-06T09:54:05.199Z,54.1077
2019-05-06T09:55:08.191Z,52.9846
2019-05-06T09:56:13.154Z,51.6663
2019-05-06T09:57:19.568Z,50.0122
2019-05-06T09:58:24.283Z,49.0967
2019-05-06T09:59:27.196Z,48.6694
2019-05-06T10:00:32.732Z,49.0540
2019-05-06T10:01:36.243Z,49.3347
2019-05-06T10:02:39.196Z,48.2178
2019-05-06T10:03:42.913Z,47.0825
2019-05-06T10:04:47.713Z,46.6736
2019-05-06T10:05:53.638Z,45.7581
2019-05-06T10:07:02.676Z,44.8242
2019-05-06T10:08:08.541Z,43.7134
2019-05-06T10:09:15.714Z,44.2200
2019-05-06T10:10:22.243Z,45.3308
2019-05-06T10:11:25.190Z,45.8191
2019-05-06T10:12:28.190Z,47.1375
2019-05-06T10:13:32.692Z,47.6440
2019-05-06T10:14:36.297Z,47.5403
2019-05-06T10:15:39.242Z,47.5220
2019-05-06T10:16:42.955Z,48.3276
2019-05-06T10:17:47.141Z,48.9380
2019-05-06T10:18:52.493Z,49.7498
2019-05-06T10:19:55.253Z,50.7629
2019-05-06T10:21:00.586Z,52.3865
2019-05-06T10:22:03.636Z,54.2053
2019-05-06T10:23:07.914Z,56.2317
2019-05-06T10:24:11.195Z,57.4524
2019-05-06T10:25:15.548Z,58.1848
2019-05-06T10:26:18.996Z,57.7820
2019-05-06T10:27:23.536Z,56.7932
2019-05-06T10:28:27.344Z,56.2866
2019-05-06T10:29:32.497Z,56.0852
2019-05-06T10:30:35.192Z,55.7800
2019-05-06T10:31:43.272Z,54.5654
2019-05-06T10:32:46.200Z,53.7537
2019-05-06T10:33:59.433Z,53.6499
2019-05-06T10:35:04.021Z,53.7537
2019-05-06T10:36:07.241Z,53.9551
2019-05-06T10:37:15.446Z,54.2603
2019-05-06T10:38:18.206Z,54.5654
2019-05-06T10:39:22.904Z,55.0720
2019-05-06T10:40:26.231Z,55.4749
2019-05-06T10:41:29.329Z,55.4749
2019-05-06T10:42:36.580Z,55.8838
2019-05-06T10:43:43.315Z,56.3904
2019-05-06T10:44:49.800Z,56.6956
2019-05-06T10:45:54.264Z,56.7932
2019-05-06T10:46:57.566Z,56.1829
2019-05-06T10:47:59.199Z,55.6763
2019-05-06T10:49:02.660Z,55.2734
2019-05-06T10:50:05.227Z,54.9683
2019-05-06T10:51:08.239Z,54.9683
2019-05-06T10:52:12.698Z,54.4617
2019-05-06T10:53:15.249Z,53.6255
2019-05-06T10:54:18.176Z,53.5217
2019-05-06T10:55:23.209Z,53.5217
2019-05-06T10:56:27.553Z,53.7231
2019-05-06T10:57:32.629Z,53.9307
2019-05-06T10:58:36.299Z,54.3091
2019-05-06T10:59:39.205Z,54.6143
2019-05-06T11:00:42.592Z,54.5898
2019-05-06T11:01:44.314Z,54.6875
2019-05-06T11:02:47.210Z,54.7913
2019-05-06T11:03:52.400Z,55.1697
2019-05-06T11:04:56.051Z,55.4749
2019-05-06T11:05:59.639Z,55.7739
2019-05-06T11:07:04.096Z,55.9509
2019-05-06T11:08:08.515Z,57.3669
2019-05-06T11:09:13.485Z,57.6721
2019-05-06T11:10:23.773Z,55.1453
2019-05-06T11:11:32.622Z,53.0151
2019-05-06T11:12:32.607Z,53.7231
2019-05-06T11:13:35.197Z,53.9307
2019-05-06T11:14:38.184Z,54.6387
2019-05-06T11:15:43.462Z,55.8228
2019-05-06T11:16:46.211Z,55.3162
2019-05-06T11:17:49.210Z,55.6458
2019-05-06T11:18:53.556Z,55.3467
2019-05-06T11:19:56.340Z,54.3335
2019-05-06T11:20:58.202Z,54.0527
2019-05-06T11:22:03.388Z,54.2603
2019-05-06T11:23:09.000Z,57.6965
2019-05-06T11:24:12.386Z,60.7361
2019-05-06T11:25:16.335Z,53.2715
2019-05-06T11:26:19.248Z,50.3357
2019-05-06T11:27:28.830Z,50.8423
2019-05-06T11:28:34.954Z,51.2695
2019-05-06T11:29:38.216Z,51.3672
2019-05-06T11:30:43.620Z,51.3672
2019-05-06T11:31:48.007Z,50.9644
2019-05-06T11:32:54.336Z,50.7874
2019-05-06T11:33:58.254Z,50.7874
2019-05-06T11:35:03.618Z,51.1902
2019-05-06T11:36:09.450Z,51.9287
2019-05-06T11:37:14.811Z,53.1677
2019-05-06T11:38:18.172Z,72.9553
2019-05-06T11:39:23.340Z,67.5781
2019-05-06T11:40:32.826Z,59.9915
2019-05-06T11:41:39.318Z,58.6731
2019-05-06T11:42:43.671Z,59.1797
2019-05-06T11:43:46.192Z,57.4585
2019-05-06T11:44:48.213Z,55.5298
2019-05-06T11:45:52.696Z,54.0039
2019-05-06T11:46:57.716Z,52.9114
2019-05-06T11:48:03.556Z,51.3916
2019-05-06T11:49:06.301Z,51.4893
2019-05-06T11:50:08.211Z,51.2085
2019-05-06T11:51:12.800Z,51.4160
2019-05-06T11:53:32.571Z,52.1240
2019-05-06T11:55:49.999Z,51.8188
2019-05-06T11:56:58.093Z,51.9226
2019-05-06T11:58:02.569Z,51.8188
2019-05-06T11:59:05.202Z,51.8188
2019-05-06T12:00:00.197Z,52.0264
2019-05-06T12:01:03.204Z,52.2278
2019-05-06T12:02:06.181Z,52.1240
2019-05-06T12:03:09.467Z,51.7212
2019-05-06T12:03:52.027Z,51.6174
2019-05-06T12:04:55.192Z,51.6174
2019-05-06T12:05:58.199Z,51.5137
2019-05-06T12:07:10.488Z,51.3123
2019-05-06T12:08:09.188Z,51.2085
2019-05-06T12:09:16.526Z,50.6775
2019-05-06T12:10:19.179Z,50.4761
2019-05-06T12:10:57.178Z,50.5798
2019-05-06T12:12:00.191Z,51.2634
2019-05-06T12:13:03.246Z,51.9775
2019-05-06T12:14:06.483Z,52.5574
2019-05-06T12:15:09.275Z,52.2278
2019-05-06T12:16:14.113Z,51.7212
2019-05-06T12:17:17.198Z,51.2939
2019-05-06T12:18:23.166Z,51.2939
2019-05-06T12:19:27.287Z,51.5747
2019-05-06T12:20:32.924Z,51.5503
2019-05-06T12:21:36.174Z,51.8555
2019-05-06T12:22:39.190Z,56.1035
2019-05-06T12:23:44.768Z,57.5989
2019-05-06T12:24:48.229Z,55.3711
2019-05-06T12:25:52.934Z,52.4353
2019-05-06T12:26:56.189Z,48.8953
2019-05-06T12:27:59.236Z,48.2849
2019-05-06T12:29:02.444Z,47.3755
2019-05-06T12:30:05.538Z,46.5637
2019-05-06T12:31:08.222Z,46.8689
2019-05-06T12:32:12.916Z,47.5769
2019-05-06T12:33:16.307Z,48.5901
2019-05-06T12:34:19.179Z,49.9023
2019-05-06T12:35:22.281Z,50.3113
2019-05-06T12:36:25.193Z,50.4089
2019-05-06T12:37:28.230Z,50.5127
2019-05-06T12:38:32.269Z,50.3113
2019-05-06T12:39:35.233Z,50.5371
2019-05-06T12:40:38.900Z,51.2451
2019-05-06T12:41:43.086Z,52.4841
2019-05-06T12:42:46.228Z,53.0945
2019-05-06T12:43:49.193Z,53.3203
2019-05-06T12:44:52.885Z,53.2166
2019-05-06T12:45:56.359Z,53.6499
2019-05-06T12:46:59.878Z,54.6631
2019-05-06T13:04:51.276Z,59.6802
2019-05-06T13:06:48.220Z,59.9121
2019-05-06T13:11:58.196Z,58.4900
2019-05-06T13:29:38.397Z,55.4077
2019-05-06T13:34:48.208Z,55.1758
2019-05-06T13:54:28.258Z,59.9426
2019-05-06T13:58:37.924Z,61.0352
2019-05-06T14:39:09.203Z,58.8135
2019-05-06T15:00:59.186Z,59.1736
2019-05-06T15:10:23.337Z,54.5593
2019-05-06T15:29:08.204Z,62.5916
2019-05-06T15:36:23.174Z,57.1289
2019-05-06T15:38:28.223Z,57.1594
2019-05-06T15:57:08.269Z,57.5195
2019-05-06T16:08:32.851Z,61.6150
2019-05-06T16:26:08.224Z,61.0596
2019-05-06T16:34:28.192Z,59.8328